Time;durP1;ratioP1;P1;durP2;ratioP2;P2;SDS_P1;SDS_P2;PMS_P1;PMS_P2;Temp;Humidity;BMP_temperature;BMP_pressure;BME280_temperature;BME280_humidity;BME280_pressure;Samples;Min_cycle;Max_cycle;Signal;HPM_P1;HPM_P2
2022/07/05 00:01:55;;;;;;;13.13;11.50;;;;;;;;;;5051923;28;20061;-79
2022/07/05 00:04:20;;;;;;;13.27;11.88;;;;;;;;;;5052085;28;20029;-79
2022/07/05 00:09:30;;;;;;;15.38;11.45;;;;;;;;;;5031677;28;20494;-80
2022/07/05 00:11:55;;;;;;;14.50;11.75;;;;;;;;;;5048670;28;20029;-80
2022/07/05 00:14:21;;;;;;;15.90;11.20;;;;;;;;;;5044689;28;20048;-80
2022/07/05 00:16:46;;;;;;;12.73;11.38;;;;;;;;;;5051066;28;20029;-81
2022/07/05 00:19:11;;;;;;;13.40;12.02;;;;;;;;;;5047634;28;20059;-80
2022/07/05 00:21:37;;;;;;;14.73;11.13;;;;;;;;;;5036218;28;20017;-81
2022/07/05 00:24:02;;;;;;;14.35;11.65;;;;;;;;;;5053121;28;20044;-81
2022/07/05 00:26:28;;;;;;;13.50;12.10;;;;;;;;;;5054360;28;20025;-81
2022/07/05 00:28:54;;;;;;;13.23;11.90;;;;;;;;;;5054259;28;20037;-80
2022/07/05 00:31:19;;;;;;;13.75;12.23;;;;;;;;;;5053880;28;20025;-80
2022/07/05 00:33:45;;;;;;;13.70;11.63;;;;;;;;;;5035114;28;20036;-81
2022/07/05 00:36:10;;;;;;;13.18;11.80;;;;;;;;;;5033243;28;20049;-81
2022/07/05 00:38:36;;;;;;;14.40;12.90;;;;;;;;;;5032328;28;20026;-81
2022/07/05 00:41:01;;;;;;;13.98;11.88;;;;;;;;;;5034371;28;20021;-81
2022/07/05 00:43:27;;;;;;;14.25;12.43;;;;;;;;;;5033212;28;20378;-81
2022/07/05 00:45:52;;;;;;;13.70;12.30;;;;;;;;;;5032994;28;20017;-81
2022/07/05 00:48:18;;;;;;;14.20;12.73;;;;;;;;;;5044554;28;20488;-79
2022/07/05 00:50:43;;;;;;;14.90;13.32;;;;;;;;;;5035495;28;20018;-81
2022/07/05 00:53:10;;;;;;;15.77;12.15;;;;;;;;;;5033613;28;20051;-83
2022/07/05 00:55:35;;;;;;;13.70;12.07;;;;;;;;;;5033936;28;20040;-81
2022/07/05 00:58:01;;;;;;;13.88;11.73;;;;;;;;;;5032268;28;20029;-80
2022/07/05 01:00:26;;;;;;;13.15;11.57;;;;;;;;;;5017023;28;20082;-80
2022/07/05 01:02:52;;;;;;;13.32;11.60;;;;;;;;;;5032637;28;20409;-79
2022/07/05 01:05:17;;;;;;;15.30;11.85;;;;;;;;;;5033570;28;20534;-81
2022/07/05 01:07:43;;;;;;;12.73;11.27;;;;;;;;;;5033590;28;20049;-81
2022/07/05 01:10:08;;;;;;;14.40;12.63;;;;;;;;;;5032238;28;20820;-81
2022/07/05 01:12:34;;;;;;;13.73;10.60;;;;;;;;;;5034421;28;20045;-80
2022/07/05 01:14:59;;;;;;;12.63;11.38;;;;;;;;;;5034182;28;20072;-82
2022/07/05 01:17:25;;;;;;;12.93;11.55;;;;;;;;;;5033771;28;20073;-80
2022/07/05 01:19:51;;;;;;;13.25;11.20;;;;;;;;;;5033640;28;20116;-80
2022/07/05 01:22:18;;;;;;;13.40;11.00;;;;;;;;;;5044110;28;20091;-80
2022/07/05 01:24:44;;;;;;;16.08;11.13;;;;;;;;;;5053313;28;20032;-80
2022/07/05 01:27:09;;;;;;;12.38;11.07;;;;;;;;;;5053397;28;20029;-81
2022/07/05 01:29:35;;;;;;;13.90;11.35;;;;;;;;;;5018287;28;20068;-79
2022/07/05 01:32:00;;;;;;;14.57;12.45;;;;;;;;;;5034196;28;20041;-80
2022/07/05 01:34:26;;;;;;;17.80;11.65;;;;;;;;;;5016314;28;20029;-81
2022/07/05 01:36:51;;;;;;;14.75;11.10;;;;;;;;;;5032433;28;20037;-80
2022/07/05 01:39:17;;;;;;;15.10;10.55;;;;;;;;;;5012980;28;20075;-80
2022/07/05 01:41:43;;;;;;;14.02;11.85;;;;;;;;;;5025171;28;20527;-80
2022/07/05 01:44:08;;;;;;;14.68;12.10;;;;;;;;;;5032181;28;20045;-80
2022/07/05 01:46:36;;;;;;;14.77;13.18;;;;;;;;;;5033478;28;20504;-80
2022/07/05 01:49:03;;;;;;;15.00;12.95;;;;;;;;;;5033294;28;20388;-81
2022/07/05 01:51:39;;;;;;;12.35;11.13;;;;;;;;;;5012494;28;20087;-81
2022/07/05 01:54:05;;;;;;;14.43;12.85;;;;;;;;;;5032024;28;20524;-81
2022/07/05 01:56:30;;;;;;;14.32;12.35;;;;;;;;;;5033540;28;20108;-79
2022/07/05 01:58:56;;;;;;;13.98;12.00;;;;;;;;;;5012008;28;20038;-79
2022/07/05 02:01:32;;;;;;;15.90;12.32;;;;;;;;;;5026973;28;20056;-80
2022/07/05 02:03:57;;;;;;;13.30;11.90;;;;;;;;;;5027128;28;20426;-79
2022/07/05 02:06:24;;;;;;;13.32;11.95;;;;;;;;;;5034603;28;20029;-80
2022/07/05 02:08:49;;;;;;;13.40;12.05;;;;;;;;;;5052509;28;20188;-81
2022/07/05 02:11:15;;;;;;;12.18;10.95;;;;;;;;;;5050414;28;20029;-79
2022/07/05 02:13:41;;;;;;;14.18;11.65;;;;;;;;;;5033172;28;20033;-80
2022/07/05 02:16:07;;;;;;;14.35;11.52;;;;;;;;;;5032303;28;20026;-81
2022/07/05 02:18:32;;;;;;;14.73;12.05;;;;;;;;;;5031985;28;20094;-81
2022/07/05 02:20:58;;;;;;;12.60;11.38;;;;;;;;;;5033409;28;20029;-81
2022/07/05 02:23:24;;;;;;;14.45;11.50;;;;;;;;;;5051511;28;20040;-81
2022/07/05 02:25:51;;;;;;;12.57;11.27;;;;;;;;;;5051574;28;20020;-80
2022/07/05 02:28:17;;;;;;;13.90;11.57;;;;;;;;;;5025214;28;20036;-80
2022/07/05 02:30:47;;;;;;;15.57;12.88;;;;;;;;;;5051274;28;20056;-80
2022/07/05 02:33:13;;;;;;;13.93;11.93;;;;;;;;;;5035133;28;20025;-80
2022/07/05 02:35:39;;;;;;;13.95;12.13;;;;;;;;;;5051056;28;20036;-79
2022/07/05 02:38:04;;;;;;;13.68;11.63;;;;;;;;;;5034637;28;20071;-80
2022/07/05 02:40:30;;;;;;;16.20;11.75;;;;;;;;;;5051678;28;20035;-80
2022/07/05 02:42:56;;;;;;;15.95;12.38;;;;;;;;;;5043880;28;20037;-80
2022/07/05 02:45:22;;;;;;;12.85;11.00;;;;;;;;;;5045339;28;20025;-79
2022/07/05 02:47:54;;;;;;;13.43;11.88;;;;;;;;;;5050396;28;20051;-79
2022/07/05 02:50:20;;;;;;;13.20;11.80;;;;;;;;;;5049666;28;20124;-79
2022/07/05 02:52:48;;;;;;;13.48;11.95;;;;;;;;;;5035020;28;20025;-79
2022/07/05 02:55:15;;;;;;;16.30;12.35;;;;;;;;;;5037188;28;20041;-80
2022/07/05 02:57:41;;;;;;;13.77;11.88;;;;;;;;;;5050986;28;20480;-80
2022/07/05 03:00:10;;;;;;;15.52;12.38;;;;;;;;;;5049721;28;20385;-79
2022/07/05 03:02:40;;;;;;;13.93;12.50;;;;;;;;;;5044481;28;20028;-80
2022/07/05 03:05:07;;;;;;;14.52;11.90;;;;;;;;;;5055594;28;20059;-80
2022/07/05 03:07:32;;;;;;;16.77;12.65;;;;;;;;;;5054488;28;20044;-82
2022/07/05 03:09:59;;;;;;;14.65;12.90;;;;;;;;;;5052644;28;20036;-80
2022/07/05 03:12:25;;;;;;;16.42;13.07;;;;;;;;;;5053822;28;20127;-80
2022/07/05 03:14:51;;;;;;;15.95;12.32;;;;;;;;;;5035804;28;20115;-80
2022/07/05 03:17:18;;;;;;;17.65;12.77;;;;;;;;;;5046306;28;20053;-80
2022/07/05 03:19:44;;;;;;;14.35;12.73;;;;;;;;;;5031803;28;20396;-80
2022/07/05 03:22:12;;;;;;;16.00;12.27;;;;;;;;;;5054081;28;20504;-80
2022/07/05 03:24:39;;;;;;;15.05;12.90;;;;;;;;;;5054556;28;20056;-79
2022/07/05 03:27:05;;;;;;;13.98;12.00;;;;;;;;;;5044762;28;20472;-79
2022/07/05 03:29:31;;;;;;;14.35;12.80;;;;;;;;;;5021763;28;20112;-82
2022/07/05 03:31:57;;;;;;;14.48;12.77;;;;;;;;;;5047524;28;20120;-79
2022/07/05 03:34:25;;;;;;;16.77;12.63;;;;;;;;;;5038498;28;20132;-80
2022/07/05 03:36:51;;;;;;;15.10;11.57;;;;;;;;;;5039037;28;20025;-79
2022/07/05 03:39:18;;;;;;;15.45;13.30;;;;;;;;;;5057878;28;20152;-79
2022/07/05 03:41:44;;;;;;;15.85;13.13;;;;;;;;;;5054744;28;20028;-79
2022/07/05 03:44:13;;;;;;;14.50;12.98;;;;;;;;;;5053515;28;20391;-78
2022/07/05 03:46:38;;;;;;;14.05;12.65;;;;;;;;;;5053744;28;20108;-79
2022/07/05 03:49:04;;;;;;;16.70;13.27;;;;;;;;;;5046352;28;20112;-80
2022/07/05 03:51:30;;;;;;;14.50;13.05;;;;;;;;;;5045894;28;20017;-81
2022/07/05 03:53:56;;;;;;;16.15;13.30;;;;;;;;;;5035892;28;20025;-79
2022/07/05 03:56:23;;;;;;;17.08;13.73;;;;;;;;;;5008996;28;20029;-79
2022/07/05 03:58:51;;;;;;;18.77;14.20;;;;;;;;;;5033342;28;20112;-81
2022/07/05 04:01:18;;;;;;;22.33;14.45;;;;;;;;;;5029204;28;20024;-80
2022/07/05 04:03:43;;;;;;;20.27;13.95;;;;;;;;;;5052573;28;20047;-80
2022/07/05 04:06:11;;;;;;;19.08;14.30;;;;;;;;;;5052862;28;20033;-80
2022/07/05 04:08:36;;;;;;;18.75;14.38;;;;;;;;;;5035686;28;20462;-80
2022/07/05 04:11:02;;;;;;;16.73;14.07;;;;;;;;;;5041062;28;20550;-80
2022/07/05 04:13:28;;;;;;;13.82;12.32;;;;;;;;;;5032774;28;20030;-80
2022/07/05 04:15:56;;;;;;;17.17;13.30;;;;;;;;;;5014078;28;20041;-80
2022/07/05 04:18:22;;;;;;;20.42;14.88;;;;;;;;;;5032173;28;20084;-80
2022/07/05 04:20:48;;;;;;;31.00;15.27;;;;;;;;;;5016970;28;20110;-80
2022/07/05 04:23:14;;;;;;;18.15;14.68;;;;;;;;;;5046186;28;20037;-80
2022/07/05 04:25:39;;;;;;;21.63;14.15;;;;;;;;;;5027945;28;20028;-80
2022/07/05 04:28:31;;;;;;;20.02;14.82;;;;;;;;;;5053346;28;20040;-79
2022/07/05 04:30:58;;;;;;;16.95;13.70;;;;;;;;;;5051853;28;20451;-80
2022/07/05 04:33:25;;;;;;;15.98;14.05;;;;;;;;;;5052429;28;20033;-80
2022/07/05 04:35:54;;;;;;;17.65;13.55;;;;;;;;;;5049377;28;20044;-80
2022/07/05 04:38:19;;;;;;;21.88;13.88;;;;;;;;;;5042250;28;20035;-80
2022/07/05 04:40:46;;;;;;;19.23;14.65;;;;;;;;;;5051086;28;20430;-80
2022/07/05 04:43:12;;;;;;;15.27;13.68;;;;;;;;;;5051763;28;20029;-80
2022/07/05 04:45:37;;;;;;;17.42;14.23;;;;;;;;;;5052863;28;20086;-79
2022/07/05 04:48:03;;;;;;;18.27;14.27;;;;;;;;;;5018948;28;20111;-80
2022/07/05 04:50:31;;;;;;;18.77;14.23;;;;;;;;;;5034856;28;20468;-79
2022/07/05 04:52:57;;;;;;;14.48;12.90;;;;;;;;;;5052150;28;20060;-80
2022/07/05 04:55:22;;;;;;;14.55;12.90;;;;;;;;;;5052370;28;20068;-79
2022/07/05 04:57:48;;;;;;;17.05;12.48;;;;;;;;;;5051935;28;20032;-81
2022/07/05 05:00:14;;;;;;;14.32;12.45;;;;;;;;;;5050966;28;20484;-80
2022/07/05 05:02:39;;;;;;;13.90;12.35;;;;;;;;;;5053156;28;20060;-79
2022/07/05 05:05:05;;;;;;;14.30;12.05;;;;;;;;;;5052052;28;20040;-81
2022/07/05 05:07:30;;;;;;;13.88;12.45;;;;;;;;;;5034896;28;20048;-81
2022/07/05 05:09:56;;;;;;;14.80;12.38;;;;;;;;;;5033966;28;20124;-81
2022/07/05 05:12:22;;;;;;;17.67;13.18;;;;;;;;;;5052487;28;20033;-80
2022/07/05 05:14:48;;;;;;;14.25;12.48;;;;;;;;;;5051513;28;20498;-80
2022/07/05 05:17:13;;;;;;;17.20;12.93;;;;;;;;;;5034644;28;20104;-81
2022/07/05 05:19:39;;;;;;;14.77;12.48;;;;;;;;;;5051837;28;20484;-81
2022/07/05 05:22:05;;;;;;;15.07;12.45;;;;;;;;;;5052986;28;20032;-79
2022/07/05 05:24:31;;;;;;;17.77;11.43;;;;;;;;;;5052040;28;20037;-80
2022/07/05 05:26:56;;;;;;;14.82;12.27;;;;;;;;;;5052271;28;20468;-80
2022/07/05 05:29:22;;;;;;;13.82;11.20;;;;;;;;;;5050385;28;20037;-80
2022/07/05 05:31:47;;;;;;;14.02;11.90;;;;;;;;;;5040192;28;20032;-81
2022/07/05 05:34:13;;;;;;;12.70;11.40;;;;;;;;;;5050361;28;20043;-81
2022/07/05 05:36:38;;;;;;;14.63;11.65;;;;;;;;;;5052520;28;20037;-80
2022/07/05 05:39:04;;;;;;;13.55;11.30;;;;;;;;;;5049857;28;20468;-81
2022/07/05 05:41:29;;;;;;;16.42;10.88;;;;;;;;;;5050799;28;20018;-81
2022/07/05 05:43:56;;;;;;;14.02;10.85;;;;;;;;;;5050316;28;20503;-80
2022/07/05 05:46:21;;;;;;;19.30;11.88;;;;;;;;;;5048930;28;20036;-81
2022/07/05 05:48:47;;;;;;;17.17;11.20;;;;;;;;;;5048275;28;20026;-80
2022/07/05 05:51:12;;;;;;;14.68;10.52;;;;;;;;;;5049180;28;20052;-81
2022/07/05 05:53:38;;;;;;;12.65;10.43;;;;;;;;;;5035483;28;20472;-80
2022/07/05 05:56:03;;;;;;;10.63;9.60;;;;;;;;;;5050231;28;20029;-80
2022/07/05 05:58:29;;;;;;;11.07;9.77;;;;;;;;;;5046893;28;20025;-83
2022/07/05 06:00:54;;;;;;;12.18;9.98;;;;;;;;;;5040812;28;20040;-80
2022/07/05 06:03:20;;;;;;;12.57;9.55;;;;;;;;;;5044318;28;20033;-81
2022/07/05 06:05:46;;;;;;;12.75;9.85;;;;;;;;;;5048840;28;20520;-79
2022/07/05 06:08:12;;;;;;;13.23;9.80;;;;;;;;;;5028734;28;20586;-80
2022/07/05 06:10:37;;;;;;;12.63;9.32;;;;;;;;;;5049667;28;20033;-81
2022/07/05 06:13:04;;;;;;;12.00;8.75;;;;;;;;;;5029374;28;20036;-81
2022/07/05 06:15:29;;;;;;;11.00;8.88;;;;;;;;;;5049781;28;20480;-81
2022/07/05 06:17:55;;;;;;;15.75;9.10;;;;;;;;;;5045794;28;20103;-81
2022/07/05 06:20:21;;;;;;;12.73;8.98;;;;;;;;;;5048500;28;20524;-81
2022/07/05 06:22:47;;;;;;;11.55;9.73;;;;;;;;;;5048309;28;20040;-80
2022/07/05 06:25:12;;;;;;;12.93;9.93;;;;;;;;;;5033154;28;20105;-82
2022/07/05 06:27:39;;;;;;;15.88;10.43;;;;;;;;;;5031525;28;20037;-85
2022/07/05 06:30:05;;;;;;;15.60;9.07;;;;;;;;;;5031914;28;20026;-81
2022/07/05 06:32:31;;;;;;;15.10;9.63;;;;;;;;;;5032448;28;20069;-81
2022/07/05 06:34:56;;;;;;;9.43;8.38;;;;;;;;;;5033190;28;20029;-80
2022/07/05 06:37:22;;;;;;;11.02;8.68;;;;;;;;;;5037055;28;20037;-81
2022/07/05 06:39:47;;;;;;;8.35;7.50;;;;;;;;;;5035785;28;20037;-81
2022/07/05 06:42:13;;;;;;;9.48;7.65;;;;;;;;;;5035702;28;20483;-80
2022/07/05 06:44:41;;;;;;;9.73;8.40;;;;;;;;;;5036621;28;20100;-80
2022/07/05 06:47:07;;;;;;;11.30;8.18;;;;;;;;;;5035148;28;20451;-81
2022/07/05 06:49:32;;;;;;;10.70;7.60;;;;;;;;;;5044858;28;20033;-81
2022/07/05 06:51:57;;;;;;;11.13;7.68;;;;;;;;;;5041147;28;20033;-81
2022/07/05 06:54:23;;;;;;;9.13;7.90;;;;;;;;;;5002296;28;20076;-82
2022/07/05 06:56:48;;;;;;;9.90;8.00;;;;;;;;;;5035860;28;20037;-82
2022/07/05 06:59:14;;;;;;;10.85;8.13;;;;;;;;;;5035260;28;20026;-82
2022/07/05 07:01:39;;;;;;;11.02;8.90;;;;;;;;;;5048117;28;20078;-81
2022/07/05 07:04:05;;;;;;;9.43;8.13;;;;;;;;;;5043436;28;20021;-81
2022/07/05 07:06:30;;;;;;;18.00;8.65;;;;;;;;;;5039786;28;20065;-83
2022/07/05 07:11:41;;;;;;;12.13;9.00;;;;;;;;;;5036348;28;20021;-82
2022/07/05 07:14:06;;;;;;;10.93;8.57;;;;;;;;;;5018365;28;20032;-83
2022/07/05 07:16:32;;;;;;;12.82;8.80;;;;;;;;;;5002266;28;20128;-83
2022/07/05 07:18:58;;;;;;;10.07;8.48;;;;;;;;;;5002607;28;20500;-82
2022/07/05 07:21:23;;;;;;;11.18;8.48;;;;;;;;;;5037850;28;20040;-81
2022/07/05 07:23:49;;;;;;;9.15;8.25;;;;;;;;;;5037146;28;20020;-81
2022/07/05 07:26:14;;;;;;;9.45;8.10;;;;;;;;;;5053633;28;20111;-81
2022/07/05 07:28:40;;;;;;;10.48;8.45;;;;;;;;;;5054217;28;20031;-81
2022/07/05 07:31:06;;;;;;;9.88;7.95;;;;;;;;;;5053661;28;20029;-81
2022/07/05 07:33:32;;;;;;;9.75;8.75;;;;;;;;;;5037687;28;20512;-84
2022/07/05 07:35:58;;;;;;;9.25;8.25;;;;;;;;;;5053186;28;20458;-82
2022/07/05 07:38:24;;;;;;;10.00;8.50;;;;;;;;;;5053457;28;20029;-84
2022/07/05 07:40:50;;;;;;;10.05;8.23;;;;;;;;;;5052727;28;20048;-84
2022/07/05 07:43:16;;;;;;;8.73;7.93;;;;;;;;;;5054505;28;20036;-82
2022/07/05 07:45:42;;;;;;;12.52;8.73;;;;;;;;;;5053607;28;20450;-84
2022/07/05 07:48:08;;;;;;;8.40;7.60;;;;;;;;;;5053606;28;20490;-86
2022/07/05 07:50:33;;;;;;;8.60;7.43;;;;;;;;;;5035749;28;20119;-83
2022/07/05 07:52:59;;;;;;;8.32;7.53;;;;;;;;;;5054298;28;20502;-82
2022/07/05 07:55:24;;;;;;;8.77;7.80;;;;;;;;;;5035704;28;20044;-84
2022/07/05 07:57:50;;;;;;;8.45;7.40;;;;;;;;;;5053120;28;20033;-81
2022/07/05 08:00:15;;;;;;;8.68;7.75;;;;;;;;;;5035498;28;20160;-86
2022/07/05 08:02:41;;;;;;;8.75;7.88;;;;;;;;;;5036199;28;20025;-84
2022/07/05 08:05:09;;;;;;;9.52;7.28;;;;;;;;;;5035768;28;20033;-81
2022/07/05 08:07:35;;;;;;;10.55;8.00;;;;;;;;;;5052972;28;20530;-85
2022/07/05 08:10:00;;;;;;;9.32;7.72;;;;;;;;;;5052003;28;20024;-83
2022/07/05 08:12:25;;;;;;;10.00;7.43;;;;;;;;;;5020034;28;20035;-82
2022/07/05 08:14:51;;;;;;;10.60;7.13;;;;;;;;;;5052093;28;20154;-86
2022/07/05 08:17:16;;;;;;;7.68;6.90;;;;;;;;;;5036078;28;20029;-82
2022/07/05 08:22:26;;;;;;;7.85;7.03;;;;;;;;;;5038441;28;20044;-82
2022/07/05 08:24:52;;;;;;;7.63;6.53;;;;;;;;;;5035293;28;20017;-83
2022/07/05 08:27:17;;;;;;;7.60;5.85;;;;;;;;;;5034735;28;20057;-82
2022/07/05 08:29:43;;;;;;;6.40;5.80;;;;;;;;;;5046441;28;20029;-83
2022/07/05 08:32:08;;;;;;;8.20;6.45;;;;;;;;;;5044801;28;20037;-83
2022/07/05 08:34:34;;;;;;;6.65;6.05;;;;;;;;;;5035415;28;20037;-84
2022/07/05 08:36:59;;;;;;;6.75;5.65;;;;;;;;;;5035940;28;20033;-81
2022/07/05 08:39:25;;;;;;;7.35;6.00;;;;;;;;;;5051779;28;20068;-84
2022/07/05 08:41:51;;;;;;;6.28;5.68;;;;;;;;;;5036267;28;20037;-82
2022/07/05 08:44:20;;;;;;;6.32;5.72;;;;;;;;;;5054124;28;20025;-85
2022/07/05 08:46:46;;;;;;;6.72;5.95;;;;;;;;;;5036161;28;20035;-84
2022/07/05 08:49:11;;;;;;;8.18;6.00;;;;;;;;;;5018566;28;20099;-82
2022/07/05 08:51:40;;;;;;;6.68;5.75;;;;;;;;;;5052531;28;20033;-83
2022/07/05 08:54:06;;;;;;;7.05;5.65;;;;;;;;;;5022956;28;20029;-83
2022/07/05 08:56:32;;;;;;;6.93;6.03;;;;;;;;;;5035997;28;20388;-82
2022/07/05 08:58:58;;;;;;;6.88;6.18;;;;;;;;;;5046032;28;20010;-86
2022/07/05 09:01:24;;;;;;;7.15;5.80;;;;;;;;;;5033846;28;20580;-82
2022/07/05 09:03:50;;;;;;;6.90;6.20;;;;;;;;;;5013366;28;20085;-85
2022/07/05 09:06:16;;;;;;;6.30;5.70;;;;;;;;;;5059233;28;20035;-83
2022/07/05 09:08:42;;;;;;;9.73;6.25;;;;;;;;;;5016580;28;20060;-84
2022/07/05 09:11:11;;;;;;;7.10;6.40;;;;;;;;;;5016211;28;20496;-86
2022/07/05 09:13:37;;;;;;;6.38;5.78;;;;;;;;;;5039771;28;20059;-81
2022/07/05 09:16:03;;;;;;;7.20;5.90;;;;;;;;;;5023578;28;20037;-83
2022/07/05 09:18:41;;;;;;;8.43;6.15;;;;;;;;;;5033002;28;20025;-80
2022/07/05 09:21:12;;;;;;;8.70;5.75;;;;;;;;;;5016858;28;20040;-82
2022/07/05 09:23:38;;;;;;;6.90;5.68;;;;;;;;;;5035384;28;20041;-83
2022/07/05 09:26:03;;;;;;;8.30;5.70;;;;;;;;;;5018215;28;20027;-84
2022/07/05 09:28:29;;;;;;;6.22;5.55;;;;;;;;;;5018677;28;20044;-82
2022/07/05 09:30:54;;;;;;;7.05;5.95;;;;;;;;;;5034230;28;20039;-83
2022/07/05 09:33:20;;;;;;;6.68;5.90;;;;;;;;;;5052444;28;20045;-83
2022/07/05 09:35:54;;;;;;;6.32;5.60;;;;;;;;;;5049893;28;20036;-84
2022/07/05 09:38:20;;;;;;;6.45;5.68;;;;;;;;;;5034865;28;20033;-81
2022/07/05 09:40:47;;;;;;;5.93;5.32;;;;;;;;;;5033165;28;20064;-83
2022/07/05 09:43:25;;;;;;;6.60;5.93;;;;;;;;;;5051292;28;20106;-83
2022/07/05 09:45:54;;;;;;;8.40;5.53;;;;;;;;;;5033410;28;20044;-82
2022/07/05 09:48:19;;;;;;;9.32;5.55;;;;;;;;;;5051236;28;20097;-82
2022/07/05 09:50:45;;;;;;;7.82;5.90;;;;;;;;;;5050789;28;20056;-82
2022/07/05 09:53:13;;;;;;;7.53;5.20;;;;;;;;;;5052015;28;20518;-83
2022/07/05 09:55:40;;;;;;;9.05;4.85;;;;;;;;;;5038223;28;20091;-83
2022/07/05 09:58:05;;;;;;;12.95;4.90;;;;;;;;;;5033642;28;20086;-83
2022/07/05 10:00:31;;;;;;;10.95;5.10;;;;;;;;;;5038102;28;20028;-83
2022/07/05 10:03:00;;;;;;;10.57;5.15;;;;;;;;;;5033882;28;20029;-81
2022/07/05 10:05:27;;;;;;;7.60;4.90;;;;;;;;;;5049623;28;20059;-84
2022/07/05 10:07:59;;;;;;;9.00;4.97;;;;;;;;;;5034036;28;20085;-82
2022/07/05 10:10:25;;;;;;;7.85;4.90;;;;;;;;;;5048820;28;20033;-82
2022/07/05 10:13:05;;;;;;;5.57;4.63;;;;;;;;;;5050605;28;20048;-84
2022/07/05 10:15:32;;;;;;;11.05;5.10;;;;;;;;;;5039567;28;20072;-84
2022/07/05 10:18:04;;;;;;;9.10;5.50;;;;;;;;;;5016604;28;20388;-81
2022/07/05 10:20:41;;;;;;;6.72;4.50;;;;;;;;;;5050215;28;20044;-82
2022/07/05 10:23:16;;;;;;;7.00;5.07;;;;;;;;;;5050715;28;20047;-82
2022/07/05 10:25:43;;;;;;;6.32;4.80;;;;;;;;;;5050813;28;20079;-82
2022/07/05 10:28:08;;;;;;;7.43;4.78;;;;;;;;;;5051075;28;20409;-82
2022/07/05 10:30:34;;;;;;;6.53;4.78;;;;;;;;;;5050243;28;20041;-82
2022/07/05 10:33:05;;;;;;;9.70;5.03;;;;;;;;;;5049430;28;20029;-81
2022/07/05 10:35:30;;;;;;;5.70;4.88;;;;;;;;;;5050599;28;20404;-82
2022/07/05 10:37:56;;;;;;;6.25;4.90;;;;;;;;;;5050295;28;20051;-82
2022/07/05 10:40:22;;;;;;;8.40;5.40;;;;;;;;;;5038209;28;20041;-81
2022/07/05 10:42:52;;;;;;;9.48;5.20;;;;;;;;;;5014148;28;20033;-81
2022/07/05 10:45:24;;;;;;;7.43;5.28;;;;;;;;;;5032380;28;20542;-83
2022/07/05 10:48:09;;;;;;;8.25;5.13;;;;;;;;;;5011677;28;20133;-82
2022/07/05 10:50:44;;;;;;;5.78;5.20;;;;;;;;;;5011576;28;20033;-82
2022/07/05 10:53:10;;;;;;;19.50;4.63;;;;;;;;;;5031770;28;20033;-82
2022/07/05 10:55:47;;;;;;;7.72;5.10;;;;;;;;;;5015113;28;20032;-83
2022/07/05 10:58:16;;;;;;;11.25;5.13;;;;;;;;;;5031113;28;20121;-80
2022/07/05 11:00:42;;;;;;;8.27;5.00;;;;;;;;;;5032038;28;20017;-81
2022/07/05 11:03:28;;;;;;;10.23;5.03;;;;;;;;;;5011062;28;20073;-83
2022/07/05 11:05:53;;;;;;;6.90;4.65;;;;;;;;;;5021498;28;20038;-83
2022/07/05 11:08:19;;;;;;;9.40;4.97;;;;;;;;;;5031126;28;20100;-82
2022/07/05 11:11:03;;;;;;;7.00;5.47;;;;;;;;;;5032059;28;20036;-81
2022/07/05 11:13:35;;;;;;;8.40;4.97;;;;;;;;;;5032063;28;20120;-81
2022/07/05 11:16:19;;;;;;;7.47;5.47;;;;;;;;;;5030898;28;20044;-82
2022/07/05 11:18:45;;;;;;;9.07;5.30;;;;;;;;;;5020792;28;20037;-80
2022/07/05 11:21:15;;;;;;;9.18;5.45;;;;;;;;;;5033537;28;20056;-82
2022/07/05 11:23:41;;;;;;;5.95;5.35;;;;;;;;;;5053992;28;20037;-81
2022/07/05 11:26:07;;;;;;;6.82;4.80;;;;;;;;;;5040400;28;20030;-81
2022/07/05 11:28:41;;;;;;;6.85;5.07;;;;;;;;;;5055219;28;20029;-81
2022/07/05 11:31:07;;;;;;;6.57;5.63;;;;;;;;;;5036322;28;20044;-81
2022/07/05 11:33:36;;;;;;;6.47;4.82;;;;;;;;;;5054168;28;20483;-81
2022/07/05 11:36:04;;;;;;;6.15;5.38;;;;;;;;;;5036060;28;20052;-82
2022/07/05 11:38:30;;;;;;;5.93;5.07;;;;;;;;;;5054666;28;20446;-81
2022/07/05 11:40:55;;;;;;;6.60;5.75;;;;;;;;;;5023608;28;20403;-82
2022/07/05 11:43:27;;;;;;;8.15;5.80;;;;;;;;;;5054222;28;20033;-82
2022/07/05 11:45:57;;;;;;;7.65;5.93;;;;;;;;;;5052981;28;20530;-80
2022/07/05 11:48:22;;;;;;;6.70;6.00;;;;;;;;;;5053022;28;20109;-82
2022/07/05 11:50:48;;;;;;;6.55;5.82;;;;;;;;;;5052873;28;20524;-81
2022/07/05 11:53:14;;;;;;;6.90;6.18;;;;;;;;;;5052444;28;20415;-81
2022/07/05 11:55:39;;;;;;;7.88;5.90;;;;;;;;;;5034799;28;20033;-82
2022/07/05 11:58:08;;;;;;;9.20;7.28;;;;;;;;;;5053230;28;20075;-82
2022/07/05 12:00:35;;;;;;;9.55;6.38;;;;;;;;;;5052569;28;20059;-82
2022/07/05 12:03:01;;;;;;;9.38;6.80;;;;;;;;;;5051177;28;20115;-81
2022/07/05 12:05:30;;;;;;;7.40;5.82;;;;;;;;;;5052211;28;20060;-84
2022/07/05 12:07:56;;;;;;;12.95;7.00;;;;;;;;;;5052629;28;20052;-84
2022/07/05 12:13:06;;;;;;;8.52;5.60;;;;;;;;;;5052110;28;20484;-81
2022/07/05 12:15:31;;;;;;;6.25;4.68;;;;;;;;;;5053581;28;20025;-82
2022/07/05 12:17:57;;;;;;;6.95;4.95;;;;;;;;;;5034684;28;20116;-81
2022/07/05 12:20:23;;;;;;;4.95;4.28;;;;;;;;;;5052991;28;20482;-82
2022/07/05 12:22:49;;;;;;;6.13;4.30;;;;;;;;;;5051240;28;20040;-81
2022/07/05 12:25:15;;;;;;;5.20;4.20;;;;;;;;;;5036194;28;20020;-82
2022/07/05 12:27:41;;;;;;;7.35;4.47;;;;;;;;;;5052381;28;20116;-82
2022/07/05 12:30:08;;;;;;;5.60;4.32;;;;;;;;;;5053088;28;20129;-81
2022/07/05 12:32:36;;;;;;;8.50;4.03;;;;;;;;;;5037014;28;20396;-82
2022/07/05 12:35:02;;;;;;;6.35;4.60;;;;;;;;;;5034887;28;20025;-82
2022/07/05 12:37:27;;;;;;;6.05;3.75;;;;;;;;;;5036613;28;20064;-81
2022/07/05 12:40:04;;;;;;;7.82;4.35;;;;;;;;;;5054106;28;20036;-83
2022/07/05 12:42:38;;;;;;;6.93;4.20;;;;;;;;;;5035490;28;20098;-81
2022/07/05 12:45:14;;;;;;;7.72;3.97;;;;;;;;;;5035898;28;20033;-81
2022/07/05 12:47:50;;;;;;;6.88;3.72;;;;;;;;;;5048943;28;20469;-82
2022/07/05 12:50:15;;;;;;;;;;;;;;;;;;5047711;28;20531;-81
2022/07/05 12:53:00;;;;;;;6.63;4.80;;;;;;;;;;5053202;28;19908;-82
2022/07/05 12:58:19;;;;;;;6.85;4.47;;;;;;;;;;5051351;28;20468;-82
2022/07/05 13:00:44;;;;;;;8.43;4.53;;;;;;;;;;5051546;28;20174;-82
2022/07/05 13:03:10;;;;;;;7.40;4.72;;;;;;;;;;5050418;28;20114;-86
2022/07/05 13:05:36;;;;;;;6.70;5.10;;;;;;;;;;5035319;28;20031;-82
2022/07/05 13:08:01;;;;;;;6.40;4.93;;;;;;;;;;5050599;28;20053;-82
2022/07/05 13:10:31;;;;;;;6.38;5.30;;;;;;;;;;5035292;28;20033;-82
2022/07/05 13:12:57;;;;;;;8.63;6.22;;;;;;;;;;5051036;28;20391;-84
2022/07/05 13:15:22;;;;;;;10.07;6.38;;;;;;;;;;5035770;28;20025;-82
2022/07/05 13:17:48;;;;;;;10.88;6.53;;;;;;;;;;5050583;28;20039;-83
2022/07/05 13:20:14;;;;;;;11.77;7.28;;;;;;;;;;5032618;28;20025;-82
2022/07/05 13:22:39;;;;;;;7.53;6.22;;;;;;;;;;5030106;28;20036;-82
2022/07/05 13:25:05;;;;;;;7.38;6.22;;;;;;;;;;5051741;28;20067;-82
2022/07/05 13:27:31;;;;;;;9.23;6.47;;;;;;;;;;5051653;28;20056;-82
2022/07/05 13:29:56;;;;;;;8.13;6.35;;;;;;;;;;5051941;28;20068;-82
2022/07/05 13:32:22;;;;;;;8.57;5.53;;;;;;;;;;5034981;28;20087;-82
2022/07/05 13:34:48;;;;;;;8.82;5.68;;;;;;;;;;5032180;28;20025;-81
2022/07/05 13:37:14;;;;;;;8.93;5.68;;;;;;;;;;5032135;28;20041;-80
2022/07/05 13:39:40;;;;;;;8.80;5.72;;;;;;;;;;5016491;28;20038;-83
2022/07/05 13:42:05;;;;;;;8.48;6.45;;;;;;;;;;5016040;28;20613;-82
2022/07/05 13:44:31;;;;;;;9.43;6.15;;;;;;;;;;5032092;28;20028;-81
2022/07/05 13:46:56;;;;;;;6.90;6.13;;;;;;;;;;5065748;28;20033;-82
2022/07/05 13:49:22;;;;;;;12.82;6.63;;;;;;;;;;5033210;28;20543;-81
2022/07/05 13:51:48;;;;;;;8.65;6.05;;;;;;;;;;5012804;28;20030;-81
2022/07/05 13:54:13;;;;;;;7.22;6.30;;;;;;;;;;5013047;28;20026;-82
2022/07/05 13:56:38;;;;;;;7.10;6.15;;;;;;;;;;5012554;28;20041;-84
2022/07/05 13:59:04;;;;;;;11.10;5.88;;;;;;;;;;5013654;28;20558;-82
2022/07/05 14:01:30;;;;;;;8.73;5.95;;;;;;;;;;5026866;28;20476;-82
2022/07/05 14:04:00;;;;;;;6.85;5.38;;;;;;;;;;5016334;28;20018;-82
2022/07/05 14:06:26;;;;;;;7.28;5.90;;;;;;;;;;5033360;28;20033;-82
2022/07/05 14:08:51;;;;;;;12.48;5.70;;;;;;;;;;5031382;28;20053;-81
2022/07/05 14:11:17;;;;;;;8.75;6.40;;;;;;;;;;5032120;28;20124;-83
2022/07/05 14:13:42;;;;;;;7.47;6.35;;;;;;;;;;5033787;28;20057;-81
2022/07/05 14:16:08;;;;;;;7.90;6.43;;;;;;;;;;5032539;28;20048;-82
2022/07/05 14:18:33;;;;;;;7.60;6.05;;;;;;;;;;5033396;28;20029;-82
2022/07/05 14:20:59;;;;;;;8.27;6.82;;;;;;;;;;5033761;28;20040;-82
2022/07/05 14:23:24;;;;;;;8.20;6.70;;;;;;;;;;5052265;28;20068;-82
2022/07/05 14:25:50;;;;;;;9.07;7.13;;;;;;;;;;5038115;28;20038;-83
2022/07/05 14:28:15;;;;;;;10.82;6.68;;;;;;;;;;5033520;28;20075;-83
2022/07/05 14:30:42;;;;;;;8.65;6.60;;;;;;;;;;5032594;28;20509;-81
2022/07/05 14:33:08;;;;;;;7.20;6.45;;;;;;;;;;5031455;28;20427;-81
2022/07/05 14:35:34;;;;;;;7.95;6.57;;;;;;;;;;5032764;28;20048;-82
2022/07/05 14:37:59;;;;;;;7.50;6.10;;;;;;;;;;5032074;28;20116;-83
2022/07/05 14:40:25;;;;;;;7.22;5.85;;;;;;;;;;5032823;28;20137;-81
2022/07/05 14:42:51;;;;;;;8.57;6.13;;;;;;;;;;5034103;28;20087;-82